Time;durP1;ratioP1;P1;durP2;ratioP2;P2;SDS_P1;SDS_P2;PMS_P1;PMS_P2;Temp;Humidity;BMP_temperature;BMP_pressure;BME280_temperature;BME280_humidity;BME280_pressure;Samples;Min_cycle;Max_cycle;Signal;HPM_P1;HPM_P2
2022/12/25 00:01:42;;;;;;;3.83;1.10;;;8.60;99.90;;;;;;5028434;28;20615;-70
2022/12/25 00:04:10;;;;;;;1.10;0.63;;;8.40;99.90;;;;;;5044244;28;20673;-70
2022/12/25 00:06:37;;;;;;;1.03;1.00;;;8.70;99.90;;;;;;5027435;28;21056;-70
2022/12/25 00:09:04;;;;;;;1.07;0.97;;;8.20;99.90;;;;;;5027944;28;20627;-70
2022/12/25 00:11:31;;;;;;;1.77;1.33;;;8.40;99.90;;;;;;5026257;28;20638;-70
2022/12/25 00:13:58;;;;;;;0.90;0.90;;;8.20;99.90;;;;;;5027417;28;20619;-71
2022/12/25 00:16:25;;;;;;;0.60;0.60;;;8.10;99.90;;;;;;5027907;28;20629;-70
2022/12/25 00:18:53;;;;;;;0.70;0.70;;;8.30;99.90;;;;;;5047287;28;20629;-70
2022/12/25 00:21:22;;;;;;;1.13;1.13;;;8.30;99.90;;;;;;5036508;28;21197;-70
2022/12/25 00:23:54;;;;;;;0.70;0.67;;;8.50;99.90;;;;;;5027491;28;20663;-70
2022/12/25 00:26:21;;;;;;;0.60;0.57;;;8.50;99.90;;;;;;5027122;28;20623;-70
2022/12/25 00:28:48;;;;;;;5.80;1.57;;;8.30;99.90;;;;;;5028995;28;20729;-70
2022/12/25 00:31:17;;;;;;;0.90;0.83;;;8.40;99.90;;;;;;5042408;28;20630;-70
2022/12/25 00:33:45;;;;;;;0.90;0.80;;;8.20;99.90;;;;;;5045151;28;20626;-70
2022/12/25 00:36:14;;;;;;;0.63;0.63;;;8.50;99.90;;;;;;5042734;28;20718;-70
2022/12/25 00:38:43;;;;;;;1.53;1.43;;;9.00;99.90;;;;;;5027242;28;20635;-70
2022/12/25 00:41:12;;;;;;;0.87;0.83;;;8.20;99.90;;;;;;5030097;28;20626;-70
2022/12/25 00:43:38;;;;;;;2.90;1.33;;;;;;;;;;5028498;28;20661;-70
2022/12/25 00:46:06;;;;;;;2.27;1.07;;;8.50;99.90;;;;;;5027554;28;20722;-70
2022/12/25 00:48:34;;;;;;;2.07;1.87;;;8.20;99.90;;;;;;5027155;28;20627;-70
2022/12/25 00:51:02;;;;;;;0.90;0.90;;;8.40;99.90;;;;;;5029595;28;20739;-70
2022/12/25 00:53:29;;;;;;;0.80;0.80;;;8.20;99.90;;;;;;5047194;28;20633;-70
2022/12/25 00:55:59;;;;;;;0.93;0.77;;;9.20;99.90;;;;;;5026232;28;20603;-70
2022/12/25 00:58:28;;;;;;;1.17;1.07;;;8.40;99.90;;;;;;5026337;28;20653;-70
2022/12/25 01:00:56;;;;;;;1.20;1.10;;;;;;;;;;5032981;28;20632;-70
2022/12/25 01:03:23;;;;;;;0.87;0.50;;;;;;;;;;5033139;28;20673;-70
2022/12/25 01:05:55;;;;;;;1.10;0.90;;;8.30;99.90;;;;;;5026979;28;20637;-70
2022/12/25 01:08:22;;;;;;;1.87;1.77;;;8.20;99.90;;;;;;5007003;28;20608;-70
2022/12/25 01:10:53;;;;;;;0.80;0.80;;;8.50;99.90;;;;;;5012326;28;20619;-70
2022/12/25 01:13:21;;;;;;;0.80;0.80;;;8.40;99.90;;;;;;5026833;28;20633;-70
2022/12/25 01:15:48;;;;;;;0.70;0.70;;;;;;;;;;5026917;28;20631;-70
2022/12/25 01:18:15;;;;;;;0.63;0.63;;;8.30;99.90;;;;;;5026821;28;20627;-70
2022/12/25 01:20:42;;;;;;;0.93;0.90;;;8.40;99.90;;;;;;5026314;28;20638;-71
2022/12/25 01:23:09;;;;;;;0.70;0.70;;;;;;;;;;5030354;28;20614;-70
2022/12/25 01:25:36;;;;;;;1.13;1.07;;;8.10;99.90;;;;;;5046477;28;20662;-70
2022/12/25 01:28:03;;;;;;;0.87;0.87;;;8.50;99.90;;;;;;5036441;28;20627;-70
2022/12/25 01:30:31;;;;;;;0.93;0.83;;;8.40;99.90;;;;;;5035996;28;20630;-70
2022/12/25 01:32:58;;;;;;;0.47;0.47;;;8.70;99.90;;;;;;5034286;28;20981;-70
2022/12/25 01:35:25;;;;;;;0.50;0.47;;;8.20;99.90;;;;;;5029802;28;20709;-69
2022/12/25 01:37:52;;;;;;;0.57;0.40;;;;;;;;;;5046015;28;20630;-70
2022/12/25 01:40:19;;;;;;;0.93;0.70;;;8.80;99.90;;;;;;5048352;28;20626;-71
2022/12/25 01:42:46;;;;;;;0.93;0.87;;;;;;;;;;5032555;28;20631;-70
2022/12/25 01:45:38;;;;;;;0.70;0.70;;;8.40;99.90;;;;;;5029634;28;20666;-70
2022/12/25 01:48:08;;;;;;;1.10;1.00;;;8.20;99.90;;;;;;5015506;28;20627;-70
2022/12/25 01:50:37;;;;;;;4.30;1.03;;;8.30;99.90;;;;;;5034112;28;20626;-70
2022/12/25 01:53:05;;;;;;;0.40;0.30;;;8.40;99.90;;;;;;5040747;28;20630;-70
2022/12/25 01:55:33;;;;;;;0.60;0.60;;;8.40;99.90;;;;;;5041553;28;20633;-70
2022/12/25 01:58:00;;;;;;;1.10;1.00;;;8.60;99.90;;;;;;5032896;28;20625;-70
2022/12/25 02:00:27;;;;;;;0.80;0.80;;;8.60;99.90;;;;;;5045515;28;20618;-70
2022/12/25 02:02:58;;;;;;;0.70;0.60;;;8.60;99.90;;;;;;5015495;28;20659;-70
2022/12/25 02:05:27;;;;;;;1.70;0.90;;;8.20;99.90;;;;;;5029486;28;20666;-69
2022/12/25 02:07:55;;;;;;;1.30;0.80;;;;;;;;;;5028729;28;20620;-69
2022/12/25 02:10:23;;;;;;;0.97;0.90;;;8.60;99.90;;;;;;5012691;28;21405;-70
2022/12/25 02:12:52;;;;;;;1.27;0.60;;;8.30;99.90;;;;;;5028066;28;20667;-70
2022/12/25 02:15:25;;;;;;;4.73;2.13;;;8.20;99.90;;;;;;5029753;28;20990;-70
2022/12/25 02:18:00;;;;;;;0.83;0.70;;;8.40;99.90;;;;;;5042706;28;20627;-70
2022/12/25 02:20:43;;;;;;;0.90;0.70;;;8.40;99.90;;;;;;5029408;28;20627;-70
2022/12/25 02:23:41;;;;;;;0.93;0.93;;;8.40;99.90;;;;;;5029441;28;20663;-70
2022/12/25 02:26:21;;;;;;;0.40;0.37;;;8.50;99.90;;;;;;5029026;28;20681;-70
2022/12/25 02:28:57;;;;;;;2.07;0.70;;;8.30;99.90;;;;;;5036321;28;20626;-70
2022/12/25 02:31:32;;;;;;;1.17;1.17;;;8.20;99.90;;;;;;5041344;28;20626;-70
2022/12/25 02:34:17;;;;;;;0.60;0.60;;;8.50;99.90;;;;;;5030287;28;21080;-70
2022/12/25 02:36:49;;;;;;;0.60;0.60;;;8.30;99.90;;;;;;5035579;28;20638;-70
2022/12/25 02:42:13;;;;;;;0.97;0.90;;;8.30;99.90;;;;;;5033458;28;20757;-70
2022/12/25 03:07:14;;;;;;;3.70;1.60;;;8.30;99.90;;;;;;5039361;28;20645;-70
2022/12/25 03:12:40;;;;;;;0.83;0.83;;;8.10;99.90;;;;;;5047226;28;20991;-69
2022/12/25 03:18:01;;;;;;;2.73;1.53;;;8.40;99.90;;;;;;5022879;28;20612;-70
2022/12/25 03:28:50;;;;;;;1.00;1.00;;;;;;;;;;5027908;28;20615;-70
2022/12/25 03:31:24;;;;;;;1.83;1.73;;;8.30;99.90;;;;;;5036602;28;20619;-70
2022/12/25 03:37:13;;;;;;;0.83;0.83;;;8.40;99.90;;;;;;5037535;28;20641;-70
2022/12/25 04:36:09;;;;;;;1.17;1.10;;;8.20;99.90;;;;;;5043580;28;20631;-70
2022/12/25 04:38:38;;;;;;;1.70;1.20;;;8.10;99.90;;;;;;5026984;28;20615;-70
2022/12/25 04:41:08;;;;;;;1.70;1.13;;;8.00;99.90;;;;;;5030296;28;20658;-70
2022/12/25 04:43:37;;;;;;;0.93;0.80;;;;;;;;;;5034542;28;20749;-70
2022/12/25 04:46:06;;;;;;;2.07;1.93;;;8.00;99.90;;;;;;5027360;28;20769;-70
2022/12/25 04:48:36;;;;;;;1.30;1.20;;;8.00;99.90;;;;;;5027114;28;20607;-70
2022/12/25 04:51:14;;;;;;;1.10;1.00;;;8.00;99.90;;;;;;5033826;28;20993;-71
2022/12/25 04:53:41;;;;;;;3.60;2.00;;;8.10;99.90;;;;;;5046939;28;20614;-69
2022/12/25 04:56:10;;;;;;;2.70;1.70;;;8.00;99.90;;;;;;5040933;28;21552;-69
2022/12/25 04:58:37;;;;;;;2.77;2.47;;;8.10;99.90;;;;;;5028929;28;20711;-70
2022/12/25 05:01:05;;;;;;;1.40;1.27;;;8.00;99.90;;;;;;5026621;28;20628;-70
2022/12/25 05:03:32;;;;;;;2.17;2.07;;;8.00;99.90;;;;;;5026761;28;20639;-70
2022/12/25 05:05:59;;;;;;;2.73;2.50;;;8.00;99.90;;;;;;5032243;28;20663;-70
2022/12/25 05:08:27;;;;;;;2.63;1.80;;;8.00;99.90;;;;;;5050746;28;21134;-70
2022/12/25 05:10:54;;;;;;;1.83;1.70;;;8.00;99.90;;;;;;5048457;28;20636;-70
2022/12/25 05:13:22;;;;;;;1.33;1.13;;;8.00;99.90;;;;;;5034054;28;20631;-70
2022/12/25 05:15:49;;;;;;;2.80;2.17;;;8.00;99.90;;;;;;5030430;28;20634;-69
2022/12/25 05:18:16;;;;;;;1.87;1.53;;;;;;;;;;5030011;28;20931;-70
2022/12/25 05:20:50;;;;;;;2.90;1.50;;;8.00;99.90;;;;;;5033950;28;20622;-70
2022/12/25 05:23:17;;;;;;;1.90;1.10;;;;;;;;;;5050278;28;20624;-69
2022/12/25 05:25:44;;;;;;;0.90;0.90;;;;;;;;;;5049905;28;20691;-69
2022/12/25 05:28:11;;;;;;;1.37;0.97;;;;;;;;;;5050405;28;20626;-69
2022/12/25 05:30:39;;;;;;;3.00;1.37;;;8.00;99.90;;;;;;5043944;28;20631;-70
2022/12/25 05:33:06;;;;;;;2.40;1.67;;;7.90;99.90;;;;;;5042315;28;20622;-70
2022/12/25 05:35:35;;;;;;;2.00;1.70;;;8.10;99.90;;;;;;5030319;28;21494;-69
2022/12/25 05:38:02;;;;;;;3.60;1.33;;;;;;;;;;5048655;28;20626;-70
2022/12/25 05:40:29;;;;;;;2.83;2.63;;;8.00;99.90;;;;;;5048452;28;20626;-70
2022/12/25 05:42:56;;;;;;;16.50;1.50;;;8.00;99.90;;;;;;5031388;28;20662;-70
2022/12/25 05:45:23;;;;;;;2.70;1.50;;;;;;;;;;5031743;28;20669;-69
2022/12/25 05:47:52;;;;;;;1.63;1.43;;;8.00;99.90;;;;;;5039763;28;20635;-69
2022/12/25 05:50:19;;;;;;;1.17;1.07;;;8.20;99.90;;;;;;5030140;28;20619;-70
2022/12/25 05:52:45;;;;;;;2.30;1.87;;;8.10;99.90;;;;;;5037165;28;20620;-70
2022/12/25 05:55:12;;;;;;;1.17;1.00;;;;;;;;;;5038435;28;20661;-70
2022/12/25 05:57:40;;;;;;;0.80;0.80;;;;;;;;;;5033951;28;21538;-70
2022/12/25 06:00:08;;;;;;;5.33;2.07;;;8.00;99.90;;;;;;5047888;28;20703;-70
2022/12/25 06:02:35;;;;;;;2.30;1.87;;;8.10;99.90;;;;;;5044222;28;20630;-70
2022/12/25 06:05:04;;;;;;;2.50;2.30;;;8.00;99.90;;;;;;5029694;28;20658;-69
2022/12/25 06:07:31;;;;;;;3.50;2.53;;;8.00;99.90;;;;;;5029849;28;21245;-70
2022/12/25 06:09:58;;;;;;;1.30;1.20;;;8.00;99.90;;;;;;5016910;28;21008;-70
2022/12/25 06:12:25;;;;;;;2.23;1.90;;;7.80;99.90;;;;;;5028999;28;20978;-70
2022/12/25 06:14:52;;;;;;;2.37;2.10;;;;;;;;;;5030216;28;20623;-68
2022/12/25 06:17:18;;;;;;;1.87;1.73;;;8.00;99.90;;;;;;5029756;28;20633;-70
2022/12/25 06:19:45;;;;;;;2.67;2.47;;;8.00;99.90;;;;;;5040633;28;20642;-70
2022/12/25 06:22:13;;;;;;;1.50;1.40;;;8.10;99.90;;;;;;5029441;28;20631;-70
2022/12/25 06:24:40;;;;;;;1.60;1.37;;;8.00;99.90;;;;;;5029652;28;20643;-69
2022/12/25 06:27:07;;;;;;;2.90;2.33;;;8.10;99.90;;;;;;5029352;28;20980;-70
2022/12/25 06:29:34;;;;;;;1.53;1.43;;;7.80;99.90;;;;;;5034766;28;21202;-70
2022/12/25 06:32:01;;;;;;;2.23;2.07;;;;;;;;;;5035559;28;20651;-71
2022/12/25 06:34:27;;;;;;;2.97;2.13;;;8.00;99.90;;;;;;5030469;28;20634;-69
2022/12/25 06:36:54;;;;;;;1.07;0.97;;;8.20;99.90;;;;;;5029176;28;21042;-70
2022/12/25 06:39:24;;;;;;;1.87;1.50;;;8.00;99.90;;;;;;5029128;28;20650;-70
2022/12/25 06:41:51;;;;;;;2.13;2.03;;;8.90;99.90;;;;;;5034731;28;21221;-69
2022/12/25 06:44:17;;;;;;;2.70;2.10;;;8.20;99.90;;;;;;5022402;28;20635;-69
2022/12/25 06:46:44;;;;;;;2.27;2.07;;;7.90;99.90;;;;;;5042079;28;21139;-70
2022/12/25 06:49:11;;;;;;;3.90;1.60;;;8.20;99.90;;;;;;5049123;28;20629;-69
2022/12/25 06:51:38;;;;;;;1.90;1.80;;;7.90;99.90;;;;;;5034867;28;20634;-69
2022/12/25 06:54:05;;;;;;;1.60;1.50;;;8.20;99.90;;;;;;5028518;28;20630;-70
2022/12/25 06:56:34;;;;;;;1.83;1.73;;;8.00;99.90;;;;;;5042939;28;20626;-70
2022/12/25 06:59:02;;;;;;;1.13;1.10;;;8.10;99.90;;;;;;5037177;28;20626;-70
2022/12/25 07:01:31;;;;;;;1.70;1.60;;;8.10;99.90;;;;;;5039220;28;20631;-70
2022/12/25 07:04:00;;;;;;;0.90;0.90;;;8.10;99.90;;;;;;5034345;28;20646;-70
2022/12/25 07:06:27;;;;;;;1.80;1.43;;;7.90;99.90;;;;;;5033874;28;21230;-70
2022/12/25 07:08:54;;;;;;;2.33;1.07;;;;;;;;;;5048603;28;20737;-70
2022/12/25 07:11:21;;;;;;;2.13;1.47;;;8.30;99.90;;;;;;5041699;28;21182;-68
2022/12/25 07:13:49;;;;;;;3.23;1.90;;;8.00;99.90;;;;;;5046370;28;20628;-70
2022/12/25 07:16:17;;;;;;;0.77;0.70;;;8.30;99.90;;;;;;5028689;28;20635;-70
2022/12/25 07:18:44;;;;;;;1.17;0.80;;;7.90;99.90;;;;;;5028890;28;21104;-70
2022/12/25 07:21:12;;;;;;;1.33;0.90;;;8.50;99.90;;;;;;5034498;28;20627;-69
2022/12/25 07:23:40;;;;;;;1.37;1.27;;;8.00;99.90;;;;;;5048734;28;20668;-69
2022/12/25 07:26:07;;;;;;;0.77;0.70;;;8.10;99.90;;;;;;5041831;28;20670;-70
2022/12/25 07:28:34;;;;;;;0.70;0.70;;;8.10;99.90;;;;;;5029632;28;20638;-70
2022/12/25 07:31:04;;;;;;;0.30;0.30;;;8.20;99.90;;;;;;5033216;28;20633;-70
2022/12/25 07:33:32;;;;;;;0.97;0.80;;;8.10;99.90;;;;;;5047984;28;20630;-68
2022/12/25 07:35:59;;;;;;;0.77;0.77;;;;;;;;;;5043757;28;20743;-70
2022/12/25 07:38:26;;;;;;;2.30;1.20;;;8.10;99.90;;;;;;5028504;28;20702;-69
2022/12/25 07:40:53;;;;;;;2.33;2.13;;;;;;;;;;5035000;28;20627;-70
2022/12/25 07:43:20;;;;;;;1.13;1.07;;;8.30;99.90;;;;;;5027705;28;20624;-70
2022/12/25 07:45:47;;;;;;;0.80;0.80;;;;;;;;;;5028299;28;20789;-69
2022/12/25 07:48:15;;;;;;;0.87;0.87;;;8.40;99.90;;;;;;5027506;28;20650;-70
2022/12/25 07:50:42;;;;;;;1.70;1.60;;;8.50;99.90;;;;;;5032170;28;20622;-70
2022/12/25 07:53:08;;;;;;;1.87;1.20;;;8.30;99.90;;;;;;5047826;28;20714;-69
2022/12/25 07:55:36;;;;;;;2.27;1.77;;;;;;;;;;5044130;28;20639;-70
2022/12/25 07:58:02;;;;;;;4.67;2.00;;;8.00;99.90;;;;;;5040785;28;20669;-69
2022/12/25 08:00:31;;;;;;;1.83;1.70;;;8.40;99.90;;;;;;5027569;28;21034;-70
2022/12/25 08:02:58;;;;;;;1.80;1.50;;;7.90;99.90;;;;;;5043921;28;20626;-70
2022/12/25 08:05:26;;;;;;;2.00;1.80;;;8.40;99.90;;;;;;5032704;28;20670;-70
2022/12/25 08:07:54;;;;;;;2.53;2.33;;;8.20;99.90;;;;;;5043311;28;20629;-68
2022/12/25 08:10:21;;;;;;;1.63;1.40;;;;;;;;;;5047320;28;20629;-70
2022/12/25 08:12:48;;;;;;;1.93;1.73;;;8.20;99.90;;;;;;5046786;28;20725;-69
2022/12/25 08:15:14;;;;;;;1.00;0.80;;;8.10;99.90;;;;;;5046953;28;20638;-70
2022/12/25 08:17:42;;;;;;;3.10;1.33;;;;;;;;;;5027131;28;20737;-68
2022/12/25 08:20:09;;;;;;;1.20;1.10;;;7.80;99.90;;;;;;5038139;28;20628;-71
2022/12/25 08:22:37;;;;;;;1.10;1.00;;;8.00;99.90;;;;;;5029300;28;21267;-69
2022/12/25 08:25:04;;;;;;;1.90;1.20;;;8.10;99.90;;;;;;5027780;28;20635;-69
2022/12/25 08:27:31;;;;;;;1.07;1.07;;;7.70;99.90;;;;;;5030508;28;20678;-70
2022/12/25 08:29:58;;;;;;;2.20;2.10;;;8.10;99.90;;;;;;5047032;28;20641;-69
2022/12/25 08:32:25;;;;;;;0.97;0.90;;;;;;;;;;5033149;28;20627;-70
2022/12/25 08:34:52;;;;;;;2.10;1.63;;;8.00;99.90;;;;;;5028337;28;21219;-70
2022/12/25 08:37:19;;;;;;;2.20;1.57;;;7.90;99.90;;;;;;5027650;28;20619;-70
2022/12/25 08:39:47;;;;;;;1.00;1.00;;;8.00;99.90;;;;;;5030511;28;21227;-70
2022/12/25 08:42:15;;;;;;;1.50;1.40;;;;;;;;;;5040926;28;20635;-70
2022/12/25 08:44:41;;;;;;;2.10;1.50;;;8.00;99.90;;;;;;5031226;28;20630;-70
2022/12/25 08:47:08;;;;;;;1.10;0.97;;;8.10;99.90;;;;;;5047748;28;20673;-70
2022/12/25 08:49:35;;;;;;;1.77;1.03;;;8.10;99.90;;;;;;5031962;28;20639;-70
2022/12/25 08:52:02;;;;;;;1.63;1.33;;;8.40;99.90;;;;;;5040118;28;21191;-70
2022/12/25 08:54:31;;;;;;;1.23;1.03;;;8.20;99.90;;;;;;5031459;28;21205;-69
2022/12/25 08:56:59;;;;;;;1.00;0.90;;;8.10;99.90;;;;;;5045456;28;20626;-70
2022/12/25 08:59:26;;;;;;;1.17;1.07;;;8.10;99.90;;;;;;5037871;28;20617;-70
2022/12/25 09:01:53;;;;;;;2.20;2.00;;;8.30;99.90;;;;;;5039727;28;20623;-70
2022/12/25 09:04:19;;;;;;;2.57;2.37;;;8.70;99.90;;;;;;5048086;28;20622;-68
2022/12/25 09:06:47;;;;;;;2.10;1.40;;;;;;;;;;5029055;28;20670;-70
2022/12/25 09:09:13;;;;;;;1.57;1.47;;;8.50;99.90;;;;;;5029526;28;20631;-70
2022/12/25 09:11:40;;;;;;;1.87;1.77;;;;;;;;;;5027189;28;20760;-70
2022/12/25 09:14:09;;;;;;;2.63;1.93;;;8.70;99.90;;;;;;5028716;28;20627;-69
2022/12/25 09:16:36;;;;;;;1.47;1.37;;;;;;;;;;5029119;28;20635;-71
2022/12/25 09:19:04;;;;;;;2.33;2.07;;;8.70;99.90;;;;;;5037053;28;20667;-70
2022/12/25 09:21:31;;;;;;;1.80;1.50;;;9.50;99.90;;;;;;5023482;28;20646;-71
2022/12/25 09:23:58;;;;;;;4.90;2.80;;;8.80;99.90;;;;;;5028378;28;20722;-71
2022/12/25 09:26:26;;;;;;;1.90;1.63;;;8.80;99.90;;;;;;5033462;28;20732;-70
2022/12/25 09:28:53;;;;;;;1.10;1.00;;;;;;;;;;5033683;28;20670;-70
2022/12/25 09:31:22;;;;;;;1.33;1.27;;;9.00;99.90;;;;;;5032748;28;20653;-70
2022/12/25 09:33:49;;;;;;;3.70;2.10;;;9.00;99.90;;;;;;5034431;28;20627;-70
2022/12/25 09:36:16;;;;;;;1.20;1.10;;;9.10;99.90;;;;;;5039073;28;20735;-70
2022/12/25 09:38:43;;;;;;;0.97;0.90;;;9.10;99.90;;;;;;5034591;28;20627;-71
2022/12/25 09:41:16;;;;;;;0.83;0.83;;;9.20;99.90;;;;;;5030686;28;20631;-70
2022/12/25 09:43:48;;;;;;;0.70;0.50;;;9.30;99.90;;;;;;5024414;28;20640;-70
2022/12/25 09:46:19;;;;;;;2.43;1.30;;;9.10;99.90;;;;;;5025477;28;20659;-71
2022/12/25 09:48:57;;;;;;;1.70;1.10;;;9.30;99.90;;;;;;5025588;28;20718;-71
2022/12/25 09:51:25;;;;;;;0.70;0.70;;;9.10;99.90;;;;;;5026519;28;20641;-71
2022/12/25 09:53:58;;;;;;;0.73;0.73;;;9.30;99.90;;;;;;5029661;28;20627;-71
2022/12/25 09:56:26;;;;;;;1.60;1.30;;;9.50;99.90;;;;;;5030344;28;20753;-71
2022/12/25 09:58:53;;;;;;;0.50;0.50;;;9.50;99.90;;;;;;5030599;28;20196;-71
2022/12/25 10:01:29;;;;;;;1.08;1.00;;;9.50;99.90;;;;;;5027535;28;20745;-70
2022/12/25 10:04:19;;;;;;;0.73;0.73;;;9.60;99.90;;;;;;5030637;28;20603;-71
2022/12/25 10:07:00;;;;;;;1.60;1.00;;;9.60;99.90;;;;;;5027476;28;20666;-70
2022/12/25 10:09:50;;;;;;;1.43;1.13;;;9.70;99.90;;;;;;5034130;28;20690;-70
2022/12/25 10:12:29;;;;;;;1.37;0.93;;;9.70;99.90;;;;;;5027787;28;20631;-70
2022/12/25 10:15:09;;;;;;;3.33;1.03;;;9.80;99.90;;;;;;5028662;28;20631;-70
2022/12/25 10:17:48;;;;;;;1.73;0.80;;;9.80;99.90;;;;;;5028547;28;21298;-71
2022/12/25 10:20:26;;;;;;;0.53;0.40;;;9.90;99.90;;;;;;5025831;28;20619;-71
2022/12/25 10:22:57;;;;;;;2.27;1.07;;;10.00;99.90;;;;;;5023207;28;20941;-71
2022/12/25 10:25:25;;;;;;;1.93;1.80;;;10.00;99.90;;;;;;5027997;28;20626;-71
2022/12/25 10:27:55;;;;;;;1.23;0.90;;;10.20;99.90;;;;;;5030514;28;20677;-71
2022/12/25 10:30:24;;;;;;;1.03;0.93;;;10.30;99.90;;;;;;5028399;28;20633;-70
2022/12/25 10:32:52;;;;;;;1.77;1.33;;;10.40;99.90;;;;;;5027995;28;20728;-71
2022/12/25 10:35:22;;;;;;;1.60;1.10;;;10.40;99.90;;;;;;5028486;28;20984;-68
2022/12/25 10:37:56;;;;;;;1.70;1.60;;;10.50;99.90;;;;;;5024162;28;20631;-70
2022/12/25 10:40:36;;;;;;;1.60;1.07;;;10.50;99.90;;;;;;5028219;28;20632;-71
2022/12/25 10:43:11;;;;;;;0.90;0.60;;;10.70;99.90;;;;;;5025437;28;20619;-71
2022/12/25 10:45:45;;;;;;;1.20;1.10;;;10.70;99.90;;;;;;5027149;28;20666;-70
2022/12/25 10:48:21;;;;;;;1.40;0.83;;;10.80;99.90;;;;;;5025014;28;20658;-71
2022/12/25 10:50:49;;;;;;;1.17;1.10;;;10.80;99.90;;;;;;5022696;28;21218;-68
2022/12/25 10:53:22;;;;;;;1.17;0.97;;;10.90;99.90;;;;;;5026857;28;20623;-69
2022/12/25 10:55:57;;;;;;;1.00;0.83;;;10.90;99.90;;;;;;5025695;28;20623;-68
2022/12/25 10:58:24;;;;;;;0.83;0.80;;;11.10;99.90;;;;;;5026867;28;20627;-68
2022/12/25 11:00:53;;;;;;;2.90;0.90;;;11.10;99.90;;;;;;5028759;28;21032;-69
2022/12/25 11:03:23;;;;;;;1.70;1.60;;;11.10;99.90;;;;;;5025834;28;20631;-68
2022/12/25 11:05:51;;;;;;;1.33;1.23;;;11.10;99.90;;;;;;5030221;28;21171;-70
2022/12/25 11:08:21;;;;;;;6.33;1.30;;;11.20;99.90;;;;;;5026359;28;20662;-70
2022/12/25 11:10:54;;;;;;;2.30;1.17;;;11.20;99.90;;;;;;5026793;28;20949;-68
2022/12/25 11:13:23;;;;;;;1.53;0.83;;;11.20;99.90;;;;;;5026942;28;20637;-69
2022/12/25 11:16:01;;;;;;;1.60;1.40;;;11.20;99.90;;;;;;5025227;28;20651;-69
2022/12/25 11:18:32;;;;;;;1.57;1.47;;;11.20;99.90;;;;;;5027788;28;20647;-69
2022/12/25 11:21:02;;;;;;;1.23;1.13;;;11.20;99.90;;;;;;5027770;28;20622;-69
2022/12/25 11:23:31;;;;;;;1.77;1.43;;;11.20;99.90;;;;;;5022613;28;20627;-70
2022/12/25 11:26:00;;;;;;;3.53;1.33;;;11.30;99.90;;;;;;5029720;28;20713;-70
2022/12/25 11:28:28;;;;;;;0.90;0.90;;;11.40;99.90;;;;;;5027785;28;20670;-69
2022/12/25 11:30:59;;;;;;;0.93;0.93;;;11.40;99.90;;;;;;5028312;28;20620;-69
2022/12/25 11:33:32;;;;;;;2.33;1.17;;;11.50;99.90;;;;;;5027635;28;21565;-69
2022/12/25 11:36:06;;;;;;;1.60;1.50;;;11.60;99.90;;;;;;5028871;28;20618;-70
2022/12/25 11:38:32;;;;;;;2.70;1.27;;;11.60;99.90;;;;;;5016996;28;20638;-69
2022/12/25 11:41:03;;;;;;;0.70;0.70;;;11.60;99.90;;;;;;5027784;28;20615;-69
2022/12/25 11:43:36;;;;;;;1.53;1.40;;;11.70;99.90;;;;;;5026594;28;20750;-69
2022/12/25 11:46:16;;;;;;;1.90;1.60;;;11.80;99.90;;;;;;5026310;28;20627;-69
2022/12/25 11:48:47;;;;;;;1.67;1.57;;;11.90;99.90;;;;;;5039955;28;21481;-69
2022/12/25 11:51:16;;;;;;;0.97;0.50;;;11.90;99.90;;;;;;5042163;28;20630;-69
2022/12/25 11:53:47;;;;;;;1.17;1.07;;;12.00;99.90;;;;;;5035147;28;20622;-69
2022/12/25 11:56:18;;;;;;;1.00;1.00;;;12.00;99.90;;;;;;5027383;28;20632;-69
2022/12/25 11:58:49;;;;;;;1.93;1.07;;;12.00;99.90;;;;;;5026595;28;21278;-69
2022/12/25 12:01:23;;;;;;;1.57;1.27;;;12.00;99.90;;;;;;5025998;28;20640;-71
2022/12/25 12:03:50;;;;;;;1.20;1.20;;;12.10;99.90;;;;;;5030171;28;20629;-69
2022/12/25 12:06:27;;;;;;;2.13;1.97;;;12.10;99.90;;;;;;5026092;28;20634;-69
2022/12/25 12:09:00;;;;;;;1.50;1.40;;;12.20;99.90;;;;;;5025706;28;20655;-70
2022/12/25 12:11:33;;;;;;;2.20;1.00;;;12.20;99.90;;;;;;5024937;28;20630;-69
2022/12/25 12:14:11;;;;;;;1.90;1.73;;;12.20;99.90;;;;;;5025781;28;21214;-70
2022/12/25 12:16:38;;;;;;;2.00;1.40;;;12.30;99.90;;;;;;5026375;28;20626;-70
2022/12/25 12:19:12;;;;;;;0.70;0.70;;;12.10;99.90;;;;;;5025860;28;21184;-70
2022/12/25 12:21:42;;;;;;;3.30;1.30;;;12.30;99.90;;;;;;5025274;28;20639;-70
2022/12/25 12:24:13;;;;;;;2.87;0.87;;;12.30;99.90;;;;;;5027242;28;21203;-69
2022/12/25 12:26:42;;;;;;;0.53;0.47;;;12.30;99.90;;;;;;5033077;28;20663;-70
2022/12/25 12:29:23;;;;;;;1.20;1.10;;;12.50;99.90;;;;;;5025217;28;20632;-70
2022/12/25 12:31:51;;;;;;;0.87;0.87;;;12.60;99.90;;;;;;5038251;28;20632;-69
2022/12/25 12:34:23;;;;;;;1.00;0.90;;;12.50;99.90;;;;;;5012547;28;20624;-70
2022/12/25 12:36:56;;;;;;;0.50;0.50;;;12.40;99.90;;;;;;5034664;28;20619;-70
2022/12/25 12:39:26;;;;;;;0.40;0.37;;;12.40;99.90;;;;;;5034346;28;21220;-70
2022/12/25 12:41:53;;;;;;;2.10;1.17;;;12.40;99.90;;;;;;5026833;28;20628;-70
2022/12/25 12:44:24;;;;;;;1.33;1.20;;;12.50;99.90;;;;;;5025580;28;20639;-71
2022/12/25 12:46:53;;;;;;;1.17;1.07;;;12.70;99.90;;;;;;5034144;28;20633;-70
2022/12/25 12:49:23;;;;;;;1.60;1.47;;;12.80;99.90;;;;;;5045102;28;20665;-70
2022/12/25 12:51:50;;;;;;;0.80;0.70;;;12.90;99.90;;;;;;5043908;28;20630;-70
2022/12/25 12:54:22;;;;;;;2.00;1.10;;;12.90;99.90;;;;;;5045331;28;20606;-70
2022/12/25 12:56:56;;;;;;;1.07;0.77;;;12.90;99.90;;;;;;5032115;28;20972;-70
2022/12/25 12:59:23;;;;;;;0.83;0.80;;;12.90;99.90;;;;;;5031949;28;21120;-70
2022/12/25 13:02:04;;;;;;;0.73;0.73;;;12.90;99.90;;;;;;5035820;28;20626;-70
2022/12/25 13:04:45;;;;;;;0.93;0.80;;;12.80;99.90;;;;;;5040603;28;20633;-70
2022/12/25 13:07:25;;;;;;;1.17;1.00;;;12.80;99.90;;;;;;5027679;28;20669;-70
2022/12/25 13:10:08;;;;;;;1.37;1.10;;;12.80;99.90;;;;;;5027379;28;20631;-70
2022/12/25 13:12:35;;;;;;;1.40;1.07;;;12.80;99.90;;;;;;5043815;28;20630;-70
2022/12/25 13:15:01;;;;;;;0.87;0.87;;;12.90;99.90;;;;;;5030942;28;20627;-70
2022/12/25 13:17:29;;;;;;;1.47;1.17;;;12.90;99.90;;;;;;5026190;28;20623;-70
2022/12/25 13:19:57;;;;;;;1.00;0.93;;;12.90;99.90;;;;;;5026655;28;20630;-70
2022/12/25 13:22:26;;;;;;;2.00;1.60;;;12.90;99.90;;;;;;5043223;28;20665;-70
2022/12/25 13:24:59;;;;;;;1.37;1.20;;;13.10;99.90;;;;;;5046403;28;20665;-70
2022/12/25 13:27:28;;;;;;;1.70;1.07;;;13.10;99.90;;;;;;5048455;28;20664;-70
2022/12/25 13:29:56;;;;;;;0.70;0.70;;;13.00;99.90;;;;;;5049063;28;20618;-70
2022/12/25 13:32:25;;;;;;;0.83;0.83;;;13.10;99.90;;;;;;5034156;28;20638;-70
2022/12/25 13:34:53;;;;;;;0.70;0.70;;;13.10;99.90;;;;;;5029183;28;20669;-70
2022/12/25 13:37:21;;;;;;;1.13;1.03;;;13.00;99.90;;;;;;5031509;28;20635;-69
2022/12/25 13:39:51;;;;;;;0.60;0.60;;;13.10;99.90;;;;;;5030471;28;20627;-69
2022/12/25 13:42:21;;;;;;;1.07;0.97;;;13.10;99.90;;;;;;5038984;28;20643;-70
2022/12/25 13:44:50;;;;;;;1.70;1.53;;;13.10;99.90;;;;;;5029839;28;20631;-69
2022/12/25 13:47:20;;;;;;;1.03;1.00;;;13.10;99.90;;;;;;5029679;28;20631;-69
2022/12/25 13:49:48;;;;;;;0.73;0.63;;;13.00;99.90;;;;;;5028535;28;20630;-70
2022/12/25 13:52:20;;;;;;;1.03;0.90;;;13.00;99.90;;;;;;5040996;28;20627;-68
2022/12/25 13:54:58;;;;;;;1.03;0.90;;;13.10;99.90;;;;;;5034206;28;20633;-69
2022/12/25 13:57:30;;;;;;;1.00;1.00;;;13.00;99.90;;;;;;5035233;28;20667;-69
2022/12/25 13:59:58;;;;;;;0.93;0.87;;;13.00;99.90;;;;;;5047224;28;20662;-68
2022/12/25 14:02:30;;;;;;;0.77;0.70;;;13.00;99.90;;;;;;5046792;28;20976;-68
2022/12/25 14:04:57;;;;;;;0.80;0.80;;;13.00;99.90;;;;;;5030384;28;20631;-69
2022/12/25 14:07:24;;;;;;;0.97;0.80;;;12.90;99.90;;;;;;5030434;28;20631;-69
2022/12/25 14:09:57;;;;;;;0.60;0.60;;;12.90;99.90;;;;;;5029509;28;20615;-69
2022/12/25 14:12:25;;;;;;;1.43;0.60;;;12.90;99.90;;;;;;5045834;28;20626;-69
2022/12/25 14:14:54;;;;;;;0.87;0.87;;;12.90;99.90;;;;;;5046981;28;21030;-68
2022/12/25 14:17:22;;;;;;;0.83;0.83;;;12.90;99.90;;;;;;5031371;28;20645;-70
2022/12/25 14:20:00;;;;;;;0.87;0.87;;;12.90;99.90;;;;;;5028886;28;20647;-70
2022/12/25 14:22:28;;;;;;;1.27;0.80;;;12.80;99.90;;;;;;5045085;28;20630;-69
2022/12/25 14:24:55;;;;;;;0.87;0.87;;;12.80;99.90;;;;;;5041067;28;20634;-68
2022/12/25 14:27:25;;;;;;;1.20;1.20;;;12.70;99.90;;;;;;5041927;28;21217;-68
2022/12/25 14:29:56;;;;;;;1.13;1.03;;;12.70;99.90;;;;;;5048833;28;20633;-68
2022/12/25 14:32:26;;;;;;;1.90;1.77;;;12.60;99.90;;;;;;5033679;28;20659;-69
2022/12/25 14:34:56;;;;;;;4.50;2.37;;;12.60;99.90;;;;;;5030301;28;20726;-70
2022/12/25 14:37:27;;;;;;;1.53;1.43;;;12.50;99.90;;;;;;5032998;28;20634;-68
2022/12/25 14:39:59;;;;;;;1.70;1.53;;;12.50;99.90;;;;;;5029314;28;20722;-68
2022/12/25 14:42:28;;;;;;;2.60;2.00;;;12.50;99.90;;;;;;5028413;28;21215;-68
2022/12/25 14:45:07;;;;;;;2.17;1.83;;;12.40;99.90;;;;;;5028574;28;20645;-70
2022/12/25 14:47:53;;;;;;;1.47;1.37;;;12.40;99.90;;;;;;5029108;28;20634;-68
2022/12/25 14:50:26;;;;;;;1.30;1.10;;;12.30;99.90;;;;;;5028908;28;20623;-70
2022/12/25 14:52:54;;;;;;;1.43;1.33;;;12.30;99.90;;;;;;5043787;28;20630;-70
2022/12/25 14:55:23;;;;;;;2.07;1.97;;;12.30;99.90;;;;;;5027978;28;20642;-69